Vintage, Pennsylvania
Current Conditions -  °F | °C
As of 8:15 PM on Monday 26 Jan 2015 (Local Time) from KMQS Reporting Station
Light Snow Light Snow  
Wind Chill: 15°   Ceiling: 100
Heat Index: 25°   Visibility: 2.5mi
Dew Point: 23°   Wind: 9mph
Humidity: 93%   Direction: 40°NE
Pressure: 29.72"   Gusts: 18mph
Location:  39.9757°N, 76.0913°W
Report Text: KMQS 270115Z AUTO 04008G16KT 2 1/2SM -SN BKN001 BKN010 BKN014 M04/M05 A2972 RMK AO2
Loading
Personal Weather Stations






























Interactive Weather Map New forecast layout! Learn more

10-Day Weather Forecast

Advertisements
Track Severe Weather on mobile